New Franklin, Ohio
Current Conditions -  °F | °C
As of 3:51 AM on Wednesday 22 Oct 2014 (Local Time) from KCAK Reporting Station
Overcast Overcast  
Wind Chill: 42°   Ceiling: 700
Heat Index: 47°   Visibility: 10mi
Dew Point: 43°   Wind: 10mph
Humidity: 86%   Direction: 360°N
Pressure: 30.1"   Gusts: NA
Location:  40.7427°N, 81.0929°W
Report Text: KCAK 220751Z 36009KT 10SM OVC007 08/06 A3010 RMK AO2 RAE39 SLP198 P0002 T00830061 $
Loading
Personal Weather Stations






























Interactive Weather Map
Tropical Storm Tracking
New forecast layout! Learn more

10-Day Weather Forecast

Advertisements
Track Severe Weather on mobile